createdAt,value
2014-08-23T00:00:40.079Z,16.8
2014-08-23T00:01:44.752Z,16.68
2014-08-23T00:02:49.740Z,16.63
2014-08-23T00:03:54.726Z,16.5
2014-08-23T00:04:59.697Z,16.44
2014-08-23T00:06:04.668Z,16.49
2014-08-23T00:07:09.653Z,16.51
2014-08-23T00:08:14.328Z,16.7
2014-08-23T00:09:19.002Z,16.69
2014-08-23T00:10:23.988Z,16.76
2014-08-23T00:11:28.662Z,16.69
2014-08-23T00:12:33.649Z,16.82
2014-08-23T00:13:38.619Z,16.79
2014-08-23T00:14:43.606Z,16.46
2014-08-23T00:15:48.295Z,16.6
2014-08-23T00:16:52.970Z,16.58
2014-08-23T00:17:57.660Z,16.71
2014-08-23T00:19:02.332Z,16.56
2014-08-23T00:20:07.320Z,16.38
2014-08-23T00:21:12.009Z,16.44
2014-08-23T00:22:16.682Z,16.53
2014-08-23T00:23:21.373Z,16.25
2014-08-23T00:24:25.656Z,15.97
2014-08-23T00:25:30.345Z,16.4
2014-08-23T00:26:35.019Z,16.36
2014-08-23T00:27:39.709Z,16.54
2014-08-23T00:28:44.383Z,16.37
2014-08-23T00:29:49.057Z,16.56
2014-08-23T00:30:53.747Z,16.7
2014-08-23T00:31:58.421Z,16.62
2014-08-23T00:33:03.109Z,16.44
2014-08-23T00:34:07.783Z,16.5
2014-08-23T00:35:12.474Z,16.56
2014-08-23T00:36:17.148Z,16.6
2014-08-23T00:37:22.133Z,16.52
2014-08-23T00:38:27.105Z,16.22
2014-08-23T00:39:32.091Z,16.36
2014-08-23T00:40:37.062Z,16.58
2014-08-23T00:41:42.048Z,16.49
2014-08-23T00:42:46.722Z,16.54
2014-08-23T00:43:51.397Z,16.47
2014-08-23T00:44:56.086Z,16.5
2014-08-23T00:46:00.759Z,16.4
2014-08-23T00:47:05.746Z,16.37
2014-08-23T00:48:10.421Z,16.23
2014-08-23T00:49:15.109Z,16.34
2014-08-23T00:50:20.081Z,16.38
2014-08-23T00:51:24.770Z,16.56
2014-08-23T00:52:29.443Z,16.44
2014-08-23T00:53:34.415Z,16.29
2014-08-23T00:54:39.105Z,16.37
2014-08-23T00:55:43.778Z,16.26
2014-08-23T00:56:48.468Z,16.38
2014-08-23T00:57:53.454Z,16.38
2014-08-23T00:58:58.128Z,16.37
2014-08-23T01:00:03.115Z,16.38
2014-08-23T01:01:07.788Z,16.06
2014-08-23T01:02:12.479Z,16.33
2014-08-23T01:03:17.450Z,16.36
2014-08-23T01:04:22.435Z,16.29
2014-08-23T01:05:27.110Z,16.15
2014-08-23T01:06:32.096Z,16.11
2014-08-23T01:07:36.769Z,16
2014-08-23T01:08:41.444Z,16.28
2014-08-23T01:09:46.134Z,16.32
2014-08-23T01:10:50.807Z,16.22
2014-08-23T01:11:55.794Z,16.42
2014-08-23T01:13:00.483Z,16.41
2014-08-23T01:14:05.455Z,16.5
2014-08-23T01:15:10.425Z,16.24
2014-08-23T01:16:15.114Z,16.38
2014-08-23T01:17:19.788Z,16.3
2014-08-23T01:18:24.479Z,16.2
2014-08-23T01:19:29.153Z,16.14
2014-08-23T01:20:33.842Z,16.24
2014-08-23T01:21:38.516Z,16.17
2014-08-23T01:22:43.205Z,16.18
2014-08-23T01:23:47.879Z,16.27
2014-08-23T01:24:51.881Z,16.41
2014-08-23T01:25:56.555Z,16.75
2014-08-23T01:27:01.542Z,16.5
2014-08-23T01:28:06.215Z,16.61
2014-08-23T01:29:10.905Z,16.5
2014-08-23T01:30:15.579Z,16.69
2014-08-23T01:31:20.253Z,16.81
2014-08-23T01:32:24.942Z,16.72
2014-08-23T01:33:29.617Z,16.65
2014-08-23T01:34:34.306Z,16.46
2014-08-23T01:35:39.292Z,16.32
2014-08-23T01:36:43.966Z,16.58
2014-08-23T01:37:48.641Z,16.56
2014-08-23T01:38:53.329Z,16.27
2014-08-23T01:39:58.035Z,16.29
2014-08-23T01:41:02.709Z,16.3
2014-08-23T01:42:07.711Z,16.07
2014-08-23T01:43:12.386Z,16.46
2014-08-23T01:44:17.075Z,16.42
2014-08-23T01:45:21.748Z,16.3
2014-08-23T01:46:26.438Z,16.38
2014-08-23T01:47:31.409Z,16.27
2014-08-23T01:48:36.098Z,16.02
2014-08-23T01:49:40.772Z,15.91
2014-08-23T01:50:45.447Z,15.97
2014-08-23T01:51:50.135Z,15.77
2014-08-23T01:52:55.123Z,15.92
2014-08-23T01:53:59.812Z,15.86
2014-08-23T01:55:04.485Z,15.77
2014-08-23T01:56:09.160Z,16.15
2014-08-23T01:57:14.146Z,15.99
2014-08-23T01:58:18.852Z,15.66
2014-08-23T01:59:23.822Z,15.76
2014-08-23T02:00:28.512Z,15.69
2014-08-23T02:01:33.186Z,15.8
2014-08-23T02:02:38.173Z,15.64
2014-08-23T02:03:42.863Z,15.8
2014-08-23T02:04:47.535Z,15.79
2014-08-23T02:05:52.209Z,15.71
2014-08-23T02:06:56.900Z,15.78
2014-08-23T02:08:01.589Z,15.9
2014-08-23T02:09:06.262Z,15.8
2014-08-23T02:10:10.937Z,15.78
2014-08-23T02:11:15.627Z,16.06
2014-08-23T02:12:20.300Z,15.96
2014-08-23T02:13:25.006Z,15.96
2014-08-23T02:14:29.679Z,15.91
2014-08-23T02:15:34.369Z,15.72
2014-08-23T02:16:39.044Z,15.78
2014-08-23T02:17:43.732Z,15.68
2014-08-23T02:18:48.406Z,15.72
2014-08-23T02:19:53.097Z,15.98
2014-08-23T02:20:57.771Z,15.63
2014-08-23T02:22:02.460Z,15.68
2014-08-23T02:23:07.431Z,15.83
2014-08-23T02:24:12.120Z,16.04
2014-08-23T02:25:17.107Z,16.05
2014-08-23T02:26:21.781Z,16.12
2014-08-23T02:27:26.454Z,16.1
2014-08-23T02:28:31.144Z,16.17
2014-08-23T02:29:35.146Z,16.2
2014-08-23T02:30:39.820Z,16.08
2014-08-23T02:31:44.509Z,16.14
2014-08-23T02:32:49.481Z,16.14
2014-08-23T02:33:54.466Z,16.27
2014-08-23T02:34:59.140Z,16.2
2014-08-23T02:36:03.831Z,15.77
2014-08-23T02:37:08.817Z,16.09
2014-08-23T02:38:13.491Z,16.34
2014-08-23T02:39:18.181Z,16.08
2014-08-23T02:40:22.870Z,15.66
2014-08-23T02:41:27.544Z,15.77
2014-08-23T02:42:32.530Z,15.68
2014-08-23T02:43:37.204Z,15.74
2014-08-23T02:44:41.894Z,15.76
2014-08-23T02:45:46.568Z,16.01
2014-08-23T02:46:51.258Z,16.08
2014-08-23T02:47:55.978Z,16.24
2014-08-23T02:49:00.653Z,15.8
2014-08-23T02:50:05.326Z,15.85
2014-08-23T02:51:10.016Z,16.04
2014-08-23T02:52:15.002Z,16.11
2014-08-23T02:53:19.972Z,16.19
2014-08-23T02:54:24.960Z,16
2014-08-23T02:55:29.633Z,16.08
2014-08-23T02:56:34.323Z,16.08
2014-08-23T02:57:38.997Z,16.11
2014-08-23T02:58:43.686Z,16.05
2014-08-23T02:59:47.688Z,16.05
2014-08-23T03:00:52.405Z,16.22
2014-08-23T03:01:57.121Z,16.26
2014-08-23T03:03:01.852Z,16.32
2014-08-23T03:04:06.584Z,16.06
2014-08-23T03:05:11.300Z,15.87
2014-08-23T03:06:16.004Z,15.84
2014-08-23T03:07:20.709Z,15.94
2014-08-23T03:08:25.710Z,15.81
2014-08-23T03:09:30.414Z,15.76
2014-08-23T03:10:35.099Z,15.87
2014-08-23T03:11:39.809Z,16.14
2014-08-23T03:12:44.505Z,16.26
2014-08-23T03:13:49.184Z,16.36
2014-08-23T03:14:54.175Z,16.3
2014-08-23T03:15:58.869Z,16.1
2014-08-23T03:17:03.560Z,16.1
2014-08-23T03:18:08.236Z,16.03
2014-08-23T03:19:12.928Z,16.16
2014-08-23T03:20:17.619Z,16.44
2014-08-23T03:21:22.294Z,16.38
2014-08-23T03:22:26.984Z,16.39
2014-08-23T03:23:31.972Z,16.23
2014-08-23T03:24:36.661Z,16.41
2014-08-23T03:25:41.336Z,16.2
2014-08-23T03:26:46.027Z,16.16
2014-08-23T03:27:51.014Z,16.05
2014-08-23T03:28:55.688Z,16.34
2014-08-23T03:30:00.424Z,16.31
2014-08-23T03:31:05.115Z,16.44
2014-08-23T03:32:09.803Z,16.47
2014-08-23T03:33:14.791Z,16.56
2014-08-23T03:34:19.465Z,16.68
2014-08-23T03:35:24.154Z,16.55
2014-08-23T03:36:28.844Z,16.32
2014-08-23T03:37:33.517Z,16.52
2014-08-23T03:38:38.207Z,16.66
2014-08-23T03:39:42.896Z,16.44
2014-08-23T03:40:47.570Z,16.38
2014-08-23T03:41:52.260Z,16.56
2014-08-23T03:42:56.949Z,16.33
2014-08-23T03:44:01.639Z,16.57
2014-08-23T03:45:06.314Z,16.58
2014-08-23T03:46:11.002Z,16.46
2014-08-23T03:47:15.677Z,16.28
2014-08-23T03:48:20.367Z,16.12
2014-08-23T03:49:25.056Z,16.09
2014-08-23T03:50:29.746Z,16.2
2014-08-23T03:51:34.419Z,16.32
2014-08-23T03:52:39.406Z,16.4
2014-08-23T03:53:44.080Z,16.43
2014-08-23T03:54:48.769Z,16.44
2014-08-23T03:55:53.756Z,16.02
2014-08-23T03:56:58.742Z,16.01
2014-08-23T03:58:03.417Z,15.75
2014-08-23T03:59:08.105Z,15.66
2014-08-23T04:00:12.795Z,15.78
2014-08-23T04:01:17.470Z,16.07
2014-08-23T04:02:22.158Z,16.25
2014-08-23T04:03:26.849Z,16.29
2014-08-23T04:04:31.835Z,16.38
2014-08-23T04:05:36.509Z,16.44
2014-08-23T04:06:41.198Z,16.43
2014-08-23T04:07:46.185Z,16.38
2014-08-23T04:08:51.171Z,16.1
2014-08-23T04:09:55.846Z,16.26
2014-08-23T04:11:00.831Z,16.32
2014-08-23T04:12:05.505Z,16
2014-08-23T04:13:10.196Z,15.62
2014-08-23T04:14:14.885Z,15.56
2014-08-23T04:15:19.558Z,15.53
2014-08-23T04:16:24.249Z,15.52
2014-08-23T04:17:28.938Z,15.4
2014-08-23T04:18:33.612Z,15.35
2014-08-23T04:19:38.302Z,15.51
2014-08-23T04:20:42.975Z,15.68
2014-08-23T04:21:47.665Z,15.87
2014-08-23T04:22:52.354Z,15.99
2014-08-23T04:23:57.028Z,16
2014-08-23T04:25:02.015Z,15.94
2014-08-23T04:26:06.704Z,15.56
2014-08-23T04:27:11.692Z,15.4
2014-08-23T04:28:16.364Z,15.32
2014-08-23T04:29:21.055Z,15.32
2014-08-23T04:30:25.744Z,15.57
2014-08-23T04:31:30.417Z,15.88
2014-08-23T04:32:35.405Z,15.99
2014-08-23T04:33:40.094Z,15.96
2014-08-23T04:34:45.065Z,15.6
2014-08-23T04:35:49.754Z,15.8
2014-08-23T04:36:54.428Z,15.98
2014-08-23T04:37:59.133Z,16.1
2014-08-23T04:39:04.120Z,16.14
2014-08-23T04:40:08.794Z,16.06
2014-08-23T04:41:13.483Z,16.25
2014-08-23T04:42:18.455Z,16.17
2014-08-23T04:43:23.440Z,16.3
2014-08-23T04:44:28.412Z,15.45
2014-08-23T04:45:33.086Z,15.7
2014-08-23T04:46:38.071Z,15.94
2014-08-23T04:47:42.745Z,16.08
2014-08-23T04:48:47.436Z,16
2014-08-23T04:49:52.110Z,16.2
2014-08-23T04:50:56.799Z,15.8
2014-08-23T04:52:01.785Z,15.73
2014-08-23T04:53:06.459Z,15.97
2014-08-23T04:54:11.133Z,16.11
2014-08-23T04:55:15.823Z,16.1
2014-08-23T04:56:20.512Z,16.06
2014-08-23T04:57:25.484Z,16.15
2014-08-23T04:58:30.158Z,16.06
2014-08-23T04:59:35.143Z,15.98
2014-08-23T05:00:40.131Z,15.95
2014-08-23T05:01:45.101Z,16.08
2014-08-23T05:02:49.774Z,16
2014-08-23T05:03:54.465Z,16.18
2014-08-23T05:04:59.435Z,16.17
2014-08-23T05:06:04.422Z,16.09
2014-08-23T05:07:09.096Z,16.32
2014-08-23T05:08:13.785Z,16.3
2014-08-23T05:09:18.460Z,16.2
2014-08-23T05:10:23.134Z,16.19
2014-08-23T05:11:27.822Z,16.13
2014-08-23T05:12:32.496Z,16.32
2014-08-23T05:13:37.484Z,16.2
2014-08-23T05:14:40.797Z,15.92
2014-08-23T05:15:45.472Z,15.86
2014-08-23T05:16:50.146Z,16.19
2014-08-23T05:17:54.834Z,16.37
2014-08-23T05:18:59.524Z,16.16
2014-08-23T05:20:04.199Z,16.25
2014-08-23T05:21:09.184Z,16.08
2014-08-23T05:22:14.156Z,16.31
2014-08-23T05:23:19.142Z,16.17
2014-08-23T05:24:23.144Z,16.2
2014-08-23T05:25:27.818Z,16.25
2014-08-23T05:26:32.509Z,16.37
2014-08-23T05:27:37.182Z,16.44
2014-08-23T05:28:41.871Z,16.58
2014-08-23T05:29:46.546Z,16.62
2014-08-23T05:30:51.531Z,16.43
2014-08-23T05:31:56.206Z,16.26
2014-08-23T05:33:00.896Z,16.16
2014-08-23T05:34:05.585Z,16.27
2014-08-23T05:35:10.259Z,16.46
2014-08-23T05:36:14.949Z,16.57
2014-08-23T05:37:19.622Z,16.56
2014-08-23T05:38:24.312Z,16.7
2014-08-23T05:39:28.986Z,16.6
2014-08-23T05:40:33.660Z,16.73
2014-08-23T05:41:38.349Z,16.77
2014-08-23T05:42:43.321Z,16.82
2014-08-23T05:43:48.009Z,16.83
2014-08-23T05:44:52.683Z,16.74
2014-08-23T05:45:57.670Z,16.79
2014-08-23T05:47:02.656Z,16.77
2014-08-23T05:48:07.331Z,16.78
2014-08-23T05:49:12.020Z,16.78
2014-08-23T05:50:16.990Z,16.65
2014-08-23T05:51:21.681Z,16.76
2014-08-23T05:52:26.355Z,16.86
2014-08-23T05:53:31.028Z,16.74
2014-08-23T05:54:36.015Z,16.78
2014-08-23T05:55:40.704Z,16.77
2014-08-23T05:56:45.378Z,16.8
2014-08-23T05:57:50.053Z,16.88
2014-08-23T05:58:55.054Z,16.91
2014-08-23T05:59:59.728Z,17.07
2014-08-23T06:01:04.714Z,17.06
2014-08-23T06:02:09.405Z,17.06
2014-08-23T06:03:14.079Z,17.18
2014-08-23T06:04:19.064Z,17.34
2014-08-23T06:05:23.738Z,17.26
2014-08-23T06:06:28.428Z,17.33
2014-08-23T06:07:33.101Z,17.19
2014-08-23T06:08:37.792Z,17.25
2014-08-23T06:09:42.762Z,17.33
2014-08-23T06:10:47.733Z,17.43
2014-08-23T06:11:52.423Z,17.47
2014-08-23T06:12:57.096Z,17.53
2014-08-23T06:14:02.083Z,17.58
2014-08-23T06:15:06.757Z,17.9
2014-08-23T06:16:11.743Z,17.84
2014-08-23T06:17:16.714Z,17.9
2014-08-23T06:18:21.404Z,17.84
2014-08-23T06:19:26.077Z,18
2014-08-23T06:20:30.767Z,18.49
2014-08-23T06:21:35.441Z,19.02
2014-08-23T06:22:40.130Z,19.18
2014-08-23T06:23:44.805Z,19.08
2014-08-23T06:24:49.792Z,18.9
2014-08-23T06:25:54.465Z,18.64
2014-08-23T06:26:59.155Z,18.41
2014-08-23T06:28:03.829Z,18.1
2014-08-23T06:29:08.518Z,18.09
2014-08-23T06:30:13.489Z,18.07
2014-08-23T06:31:18.179Z,18.03
2014-08-23T06:32:22.868Z,18.07
2014-08-23T06:33:26.853Z,17.92
2014-08-23T06:34:31.528Z,17.69
2014-08-23T06:35:36.217Z,17.78
2014-08-23T06:36:40.892Z,17.74
2014-08-23T06:37:45.878Z,17.94
2014-08-23T06:38:50.864Z,17.97
2014-08-23T06:39:55.538Z,18.1
2014-08-23T06:41:00.228Z,17.8
2014-08-23T06:42:04.902Z,17.76
2014-08-23T06:43:09.591Z,17.78
2014-08-23T06:44:14.562Z,17.89
2014-08-23T06:45:19.251Z,18.06
2014-08-23T06:46:24.222Z,18.16
2014-08-23T06:47:28.896Z,18.09
2014-08-23T06:48:33.586Z,20.44
2014-08-23T06:49:38.260Z,19.93
2014-08-23T06:50:43.247Z,19.37
2014-08-23T06:51:47.920Z,19.8
2014-08-23T06:52:52.906Z,20.76
2014-08-23T06:53:57.580Z,24.33
2014-08-23T06:55:02.568Z,23.98
2014-08-23T06:56:07.242Z,23.71
2014-08-23T06:57:11.932Z,22.84
2014-08-23T06:58:16.606Z,22.2
2014-08-23T06:59:21.295Z,21.49
2014-08-23T07:00:25.969Z,21.12
2014-08-23T07:01:30.956Z,20.79
2014-08-23T07:02:35.958Z,20.8
2014-08-23T07:03:40.929Z,21.24
2014-08-23T07:04:45.618Z,21.92
2014-08-23T07:05:50.307Z,22.16
2014-08-23T07:06:54.997Z,21.93
2014-08-23T07:07:59.968Z,22.06
2014-08-23T07:09:04.955Z,21.8
2014-08-23T07:10:09.941Z,21.77
2014-08-23T07:11:14.631Z,21.57
2014-08-23T07:12:19.304Z,21.63
2014-08-23T07:13:23.994Z,21.56
2014-08-23T07:14:27.995Z,21.52
2014-08-23T07:15:32.981Z,21.54
2014-08-23T07:16:37.656Z,21.33
2014-08-23T07:17:42.642Z,20.92
2014-08-23T07:18:47.629Z,21.08
2014-08-23T07:19:52.303Z,21.39
2014-08-23T07:20:57.288Z,21.46
2014-08-23T07:22:01.962Z,21.2
2014-08-23T07:23:06.653Z,21.32
2014-08-23T07:24:11.325Z,21.18
2014-08-23T07:25:16.015Z,21.03
2014-08-23T07:26:20.704Z,21.04
2014-08-23T07:27:25.379Z,20.84
2014-08-23T07:28:30.068Z,20.93
2014-08-23T07:29:34.758Z,21.03
2014-08-23T07:30:39.432Z,21.07
2014-08-23T07:31:44.122Z,20.98
2014-08-23T07:32:48.797Z,20.76
2014-08-23T07:33:53.485Z,20.77
2014-08-23T07:34:58.456Z,20.9
2014-08-23T07:36:03.145Z,21
2014-08-23T07:37:08.117Z,20.62
2014-08-23T07:38:12.806Z,20.78
2014-08-23T07:39:17.482Z,21.09
2014-08-23T07:40:22.171Z,21.33
2014-08-23T07:41:26.845Z,21.1
2014-08-23T07:42:31.534Z,20.98
2014-08-23T07:43:36.521Z,20.96
2014-08-23T07:44:41.211Z,21.26
2014-08-23T07:45:45.884Z,21.56
2014-08-23T07:46:50.575Z,21.57
2014-08-23T07:47:55.560Z,21.07
2014-08-23T07:48:59.562Z,20.93
2014-08-23T07:50:04.251Z,21.08
2014-08-23T07:51:09.239Z,21.08
2014-08-23T07:52:13.912Z,21.29
2014-08-23T07:53:18.602Z,21.19
2014-08-23T07:54:23.292Z,21.38
2014-08-23T07:55:27.980Z,21.3
2014-08-23T07:56:32.654Z,21.3
2014-08-23T07:57:37.345Z,21.64
2014-08-23T07:58:42.017Z,21.56
2014-08-23T07:59:47.005Z,20.92
2014-08-23T08:00:51.976Z,20.77
2014-08-23T08:01:56.962Z,21.3
2014-08-23T08:03:01.636Z,21.65
2014-08-23T08:04:06.325Z,21.69
2014-08-23T08:05:10.999Z,21.75
2014-08-23T08:06:15.986Z,22.06
2014-08-23T08:07:20.675Z,22.66
2014-08-23T08:08:25.349Z,22.2
2014-08-23T08:09:30.039Z,21.95
2014-08-23T08:10:34.712Z,21.63
2014-08-23T08:11:39.402Z,21.52
2014-08-23T08:12:44.091Z,21.61
2014-08-23T08:13:48.765Z,21.43
2014-08-23T08:14:53.456Z,21.48
2014-08-23T08:15:58.129Z,21.53
2014-08-23T08:17:02.819Z,21.26
2014-08-23T08:18:07.509Z,21.42
2014-08-23T08:19:12.181Z,21.25
2014-08-23T08:20:17.184Z,21.22
2014-08-23T08:21:21.858Z,21.27
2014-08-23T08:22:26.548Z,21.49
2014-08-23T08:23:31.237Z,21.45
2014-08-23T08:24:35.911Z,21.29
2014-08-23T08:25:40.601Z,21.07
2014-08-23T08:26:45.290Z,20.9
2014-08-23T08:27:50.277Z,21.14
2014-08-23T08:28:55.561Z,21.36
2014-08-23T08:30:00.249Z,21.42
2014-08-23T08:31:04.923Z,21.51
2014-08-23T08:32:09.910Z,21.24
2014-08-23T08:33:14.896Z,21.35
2014-08-23T08:34:19.571Z,21.42
2014-08-23T08:35:24.260Z,21.5
2014-08-23T08:36:28.934Z,21.45
2014-08-23T08:37:33.921Z,21.41
2014-08-23T08:38:38.594Z,21.7
2014-08-23T08:39:43.284Z,21.59
2014-08-23T08:40:48.255Z,21.7
2014-08-23T08:41:53.241Z,21.64
2014-08-23T08:42:57.915Z,21.43
2014-08-23T08:44:02.605Z,21.48
2014-08-23T08:45:07.294Z,21.3
2014-08-23T08:46:11.968Z,21.31
2014-08-23T08:47:16.657Z,21.48
2014-08-23T08:48:21.331Z,21.27
2014-08-23T08:49:26.021Z,21.27
2014-08-23T08:50:30.696Z,21.22
2014-08-23T08:51:35.385Z,21.08
2014-08-23T08:52:40.356Z,21.17
2014-08-23T08:53:45.045Z,20.99
2014-08-23T08:54:49.718Z,21.04
2014-08-23T08:55:54.706Z,21.18
2014-08-23T08:56:59.379Z,21.09
2014-08-23T08:58:04.068Z,20.99
2014-08-23T08:59:08.743Z,20.92
2014-08-23T09:00:13.729Z,21.24
2014-08-23T09:01:18.700Z,21.37
2014-08-23T09:02:23.686Z,21.45
2014-08-23T09:03:28.376Z,21.73
2014-08-23T09:04:33.065Z,21.68
2014-08-23T09:05:38.053Z,21.91
2014-08-23T09:06:43.039Z,21.92
2014-08-23T09:07:48.024Z,21.93
2014-08-23T09:08:52.700Z,21.74
2014-08-23T09:09:57.405Z,21.96
2014-08-23T09:11:02.392Z,22.07
2014-08-23T09:12:07.081Z,22.04
2014-08-23T09:13:11.069Z,22.09
2014-08-23T09:14:15.758Z,22
2014-08-23T09:15:20.431Z,22.02
2014-08-23T09:16:25.122Z,22.2
2014-08-23T09:17:29.794Z,22.47
2014-08-23T09:18:34.484Z,22.48
2014-08-23T09:19:39.456Z,22.48
2014-08-23T09:20:44.145Z,22.42
2014-08-23T09:21:48.835Z,22.5
2014-08-23T09:22:53.508Z,22.88
2014-08-23T09:23:58.495Z,22.98
2014-08-23T09:25:03.184Z,22.9
2014-08-23T09:26:07.874Z,23.04
2014-08-23T09:27:12.547Z,22.98
2014-08-23T09:28:17.534Z,22.78
2014-08-23T09:29:22.208Z,22.9
2014-08-23T09:30:26.898Z,23.02
2014-08-23T09:31:31.884Z,23.28
2014-08-23T09:32:36.558Z,23.33
2014-08-23T09:33:41.247Z,23.13
2014-08-23T09:34:46.249Z,23.14
2014-08-23T09:35:50.923Z,23.08
2014-08-23T09:36:55.910Z,23.1
2014-08-23T09:38:00.896Z,23
2014-08-23T09:39:05.570Z,23.18
2014-08-23T09:40:10.556Z,23.55
2014-08-23T09:41:15.544Z,23.52
2014-08-23T09:42:20.216Z,23.51
2014-08-23T09:43:24.906Z,23.33
2014-08-23T09:44:29.596Z,23.42
2014-08-23T09:45:34.285Z,23.25
2014-08-23T09:46:39.272Z,23.24
2014-08-23T09:47:43.961Z,23.07
2014-08-23T09:48:48.651Z,23.04
2014-08-23T09:49:53.341Z,23.06
2014-08-23T09:50:58.312Z,23.22
2014-08-23T09:52:03.001Z,23.2
2014-08-23T09:53:07.691Z,23.01
2014-08-23T09:54:12.380Z,22.76
2014-08-23T09:55:17.366Z,22.56
2014-08-23T09:56:22.040Z,22.52
2014-08-23T09:57:26.730Z,22.48
2014-08-23T09:58:31.716Z,22.59
2014-08-23T09:59:36.390Z,22.46
2014-08-23T10:00:41.376Z,22.28
2014-08-23T10:01:46.050Z,22.37
2014-08-23T10:02:50.741Z,22.46
2014-08-23T10:03:55.415Z,22.39
2014-08-23T10:05:00.104Z,22.58
2014-08-23T10:06:04.794Z,22.25
2014-08-23T10:07:09.763Z,22.41
2014-08-23T10:08:14.453Z,22.32
2014-08-23T10:09:19.143Z,22.34
2014-08-23T10:10:23.817Z,22.26
2014-08-23T10:11:28.506Z,22.14
2014-08-23T10:12:33.181Z,22.1
2014-08-23T10:13:37.870Z,22.06
2014-08-23T10:14:42.560Z,22.01
2014-08-23T10:15:47.234Z,21.96
2014-08-23T10:16:51.923Z,21.99
2014-08-23T10:17:56.597Z,22.08
2014-08-23T10:19:01.583Z,22.08
2014-08-23T10:20:06.273Z,22.12
2014-08-23T10:21:11.558Z,21.99
2014-08-23T10:22:16.248Z,22.23
2014-08-23T10:23:20.937Z,22.11
2014-08-23T10:24:25.611Z,22.16
2014-08-23T10:25:30.300Z,22.43
2014-08-23T10:26:35.287Z,22.44
2014-08-23T10:27:39.961Z,22.53
2014-08-23T10:28:44.650Z,22.42
2014-08-23T10:29:49.341Z,22.37
2014-08-23T10:30:54.326Z,22.23
2014-08-23T10:31:59.001Z,21.99
2014-08-23T10:33:03.986Z,21.97
2014-08-23T10:34:08.973Z,21.9
2014-08-23T10:35:13.944Z,22.03
2014-08-23T10:36:18.634Z,21.92
2014-08-23T10:37:23.323Z,21.9
2014-08-23T10:38:28.013Z,21.67
2014-08-23T10:39:32.984Z,21.84
2014-08-23T10:40:37.971Z,21.71
2014-08-23T10:41:42.660Z,21.86
2014-08-23T10:42:47.333Z,21.96
2014-08-23T10:43:52.023Z,21.82
2014-08-23T10:44:56.713Z,21.82
2014-08-23T10:46:01.386Z,22
2014-08-23T10:47:06.060Z,22.24
2014-08-23T10:48:10.750Z,22.28
2014-08-23T10:49:15.736Z,22.46
2014-08-23T10:50:20.427Z,22.58
2014-08-23T10:51:25.116Z,22.32
2014-08-23T10:52:30.101Z,22.42
2014-08-23T10:53:34.775Z,22.49
2014-08-23T10:54:39.466Z,22.3
2014-08-23T10:55:44.140Z,22.14
2014-08-23T10:56:48.829Z,22.18
2014-08-23T10:57:53.503Z,22.33
2014-08-23T10:58:58.193Z,22.31
2014-08-23T11:00:02.882Z,21.99
2014-08-23T11:01:07.556Z,21.67
2014-08-23T11:02:12.245Z,21.58
2014-08-23T11:03:16.935Z,21.42
2014-08-23T11:04:21.921Z,21.21
2014-08-23T11:05:26.596Z,21.42
2014-08-23T11:06:31.286Z,21.46
2014-08-23T11:07:35.959Z,21.13
2014-08-23T11:08:40.649Z,20.99
2014-08-23T11:09:45.339Z,21.1
2014-08-23T11:10:50.027Z,21.17
2014-08-23T11:11:54.701Z,21.09
2014-08-23T11:12:59.390Z,21.32
2014-08-23T11:14:04.081Z,21.06
2014-08-23T11:15:09.066Z,21.35
2014-08-23T11:16:13.740Z,21.2
2014-08-23T11:17:18.727Z,21.32
2014-08-23T11:18:23.698Z,21.3
2014-08-23T11:19:28.387Z,21.43
2014-08-23T11:20:33.062Z,21.5
2014-08-23T11:21:37.751Z,21.33
2014-08-23T11:22:42.441Z,21.16
2014-08-23T11:23:47.130Z,21.3
2014-08-23T11:24:51.805Z,21.2
2014-08-23T11:25:56.790Z,20.88
2014-08-23T11:27:01.761Z,20.79
2014-08-23T11:28:05.764Z,20.89
2014-08-23T11:29:10.438Z,21.06
2014-08-23T11:30:15.128Z,21.22
2014-08-23T11:31:19.801Z,21.16
2014-08-23T11:32:24.492Z,21.16
2014-08-23T11:33:29.165Z,20.92
2014-08-23T11:34:33.854Z,20.73
2014-08-23T11:35:38.545Z,20.76
2014-08-23T11:36:43.515Z,20.94
2014-08-23T11:37:48.205Z,21.08
2014-08-23T11:38:52.191Z,21.2
2014-08-23T11:39:56.881Z,21.19
2014-08-23T11:41:01.555Z,21.16
2014-08-23T11:42:06.540Z,21.32
2014-08-23T11:43:11.527Z,21.24
2014-08-23T11:44:16.497Z,21.3
2014-08-23T11:45:21.484Z,21.39
2014-08-23T11:46:26.188Z,21.68
2014-08-23T11:47:30.894Z,21.41
2014-08-23T11:48:35.882Z,21.18
2014-08-23T11:49:40.556Z,21.28
2014-08-23T11:50:45.245Z,21.52
2014-08-23T11:51:49.934Z,21.69
2014-08-23T11:52:54.609Z,20.87
2014-08-23T11:53:59.298Z,21.22
2014-08-23T11:55:03.972Z,21.58
2014-08-23T11:56:08.662Z,21.8
2014-08-23T11:57:13.336Z,21.84
2014-08-23T11:58:18.025Z,22.14
2014-08-23T11:59:22.699Z,22.3
2014-08-23T12:00:27.389Z,22.4
2014-08-23T12:01:32.062Z,21.67
2014-08-23T12:02:37.048Z,22.04
2014-08-23T12:03:42.034Z,22.23
2014-08-23T12:04:46.708Z,22.24
2014-08-23T12:05:51.413Z,22.3
2014-08-23T12:06:56.103Z,22.09
2014-08-23T12:08:00.844Z,21.9
2014-08-23T12:09:05.873Z,21.91
2014-08-23T12:10:10.601Z,21.98
2014-08-23T12:11:15.312Z,21.4
2014-08-23T12:12:20.022Z,21.1
2014-08-23T12:13:25.007Z,21.08
2014-08-23T12:14:29.711Z,21.3
2014-08-23T12:15:34.696Z,21.48
2014-08-23T12:16:39.399Z,21.31
2014-08-23T12:17:44.078Z,21.23
2014-08-23T12:18:48.772Z,21.46
2014-08-23T12:19:53.452Z,21.46
2014-08-23T12:20:58.146Z,21.62
2014-08-23T12:22:02.841Z,21.75
2014-08-23T12:23:07.517Z,21.52
2014-08-23T12:24:12.208Z,21.36
2014-08-23T12:25:17.196Z,21.34
2014-08-23T12:26:21.888Z,21.16
2014-08-23T12:27:26.564Z,21.08
2014-08-23T12:28:31.254Z,21.03
2014-08-23T12:29:36.225Z,21
2014-08-23T12:30:41.215Z,20.74
2014-08-23T12:31:45.889Z,20.83
2014-08-23T12:32:50.580Z,20.78
2014-08-23T12:33:55.566Z,20.93
2014-08-23T12:35:00.241Z,20.85
2014-08-23T12:36:05.227Z,20.97
2014-08-23T12:37:09.901Z,20.86
2014-08-23T12:38:14.888Z,20.7
2014-08-23T12:39:19.578Z,20.68
2014-08-23T12:40:24.251Z,20.83
2014-08-23T12:41:28.941Z,20.84
2014-08-23T12:42:33.630Z,20.82
2014-08-23T12:43:38.304Z,20.77
2014-08-23T12:44:42.993Z,20.73
2014-08-23T12:45:47.683Z,20.63
2014-08-23T12:46:52.357Z,20.65
2014-08-23T12:47:57.343Z,20.46
2014-08-23T12:49:02.033Z,20.36
2014-08-23T12:50:06.706Z,20.08
2014-08-23T12:51:11.396Z,19.85
2014-08-23T12:52:16.070Z,19.74
2014-08-23T12:53:20.758Z,19.85
2014-08-23T12:54:25.731Z,19.9
2014-08-23T12:55:30.718Z,19.54
2014-08-23T12:56:35.392Z,19.59
2014-08-23T12:57:40.081Z,19.58
2014-08-23T12:58:44.755Z,19.31
2014-08-23T12:59:49.445Z,19.2
2014-08-23T13:00:54.119Z,19.45
2014-08-23T13:01:58.809Z,19.5
2014-08-23T13:03:03.778Z,19.28
2014-08-23T13:04:08.766Z,19.38
2014-08-23T13:05:13.751Z,19.24
2014-08-23T13:06:18.426Z,19.42
2014-08-23T13:07:23.115Z,19.23
2014-08-23T13:08:27.788Z,19.18
2014-08-23T13:09:32.478Z,19.32
2014-08-23T13:10:37.167Z,19.42
2014-08-23T13:11:41.841Z,19.24
2014-08-23T13:12:46.531Z,19.26
2014-08-23T13:13:51.205Z,19.41
2014-08-23T13:14:55.207Z,19.57
2014-08-23T13:15:59.882Z,19.44
2014-08-23T13:17:04.572Z,19.51
2014-08-23T13:18:09.543Z,19.9
2014-08-23T13:19:14.529Z,19.76
2014-08-23T13:20:19.203Z,19.9
2014-08-23T13:21:23.892Z,20.18
2014-08-23T13:22:28.566Z,20.18
2014-08-23T13:23:33.553Z,19.98
2014-08-23T13:24:38.539Z,19.74
2014-08-23T13:25:43.213Z,20.04
2014-08-23T13:26:48.199Z,20.1
2014-08-23T13:27:52.873Z,20.52
2014-08-23T13:28:57.860Z,20.56
2014-08-23T13:30:02.846Z,20.55
2014-08-23T13:31:07.817Z,20.54
2014-08-23T13:32:12.506Z,20.46
2014-08-23T13:33:17.180Z,20.28
2014-08-23T13:34:22.167Z,20.28
2014-08-23T13:35:26.840Z,20.09
2014-08-23T13:36:31.827Z,20.14
2014-08-23T13:37:35.830Z,19.8
2014-08-23T13:38:40.504Z,19.89
2014-08-23T13:39:45.193Z,19.71
2014-08-23T13:40:49.866Z,19.93
2014-08-23T13:41:54.853Z,19.59
2014-08-23T13:42:58.840Z,19.61
2014-08-23T13:44:03.545Z,19.41
2014-08-23T13:45:08.515Z,19.39
2014-08-23T13:46:13.190Z,19.34
2014-08-23T13:47:17.879Z,19.34
2014-08-23T13:48:22.569Z,19.37
2014-08-23T13:49:27.241Z,19.06
2014-08-23T13:50:31.932Z,18.9
2014-08-23T13:51:36.606Z,19.06
2014-08-23T13:52:41.592Z,18.99
2014-08-23T13:53:46.266Z,18.92
2014-08-23T13:54:51.252Z,18.88
2014-08-23T13:55:55.926Z,18.96
2014-08-23T13:57:00.616Z,19.04
2014-08-23T13:58:05.587Z,18.8
2014-08-23T13:59:10.276Z,18.75